This is the latest recevied weather packets stored in our database for station/object KB4MOX. If no packets are shown the sender has not sent any weather packets the latest 1 day(s).
| Time | Temp. | Humidity | Pressure | Rain* | Wind** | Luminosity | Snow |
|---|---|---|---|---|---|---|---|
| 1777990885 | 20° C | 69% | 1017.4 hPa | 0 mm | 0.45 m/s, 113° | 48 W/m² | - |
| 1777990583 | 20° C | 69% | 1017.2 hPa | 0 mm | 0.89 m/s, 120° | 49 W/m² | - |
| 1777990279 | 19.44° C | 69% | 1017.2 hPa | 0 mm | 0 m/s | 46 W/m² | - |
| 1777989976 | 19.44° C | 71% | 1017.3 hPa | 0 mm | 0 m/s | 45 W/m² | - |
| 1777989673 | 19.44° C | 71% | 1017.3 hPa | 0 mm | 0.89 m/s, 99° | 69 W/m² | - |
| 1777989369 | 19.44° C | 72% | 1017.3 hPa | 0 mm | 0 m/s | 44 W/m² | - |
| 1777989066 | 18.89° C | 72% | 1017 hPa | 0 mm | 0.89 m/s, 218° | 43 W/m² | - |
| 1777988761 | 18.89° C | 74% | 1017.1 hPa | 0 mm | 0.45 m/s, 106° | 43 W/m² | - |
| 1777988459 | 18.89° C | 74% | 1017.1 hPa | 0 mm | 0.45 m/s, 299° | 169 W/m² | - |
| 1777988156 | 18.89° C | 74% | 1016.9 hPa | 0 mm | 0.45 m/s, 84° | 210 W/m² | - |
| 1777987852 | 18.33° C | 76% | 1016.8 hPa | 0 mm | 0 m/s | 172 W/m² | - |
| 1777987548 | 18.33° C | 76% | 1016.8 hPa | 0 mm | 0 m/s | 76 W/m² | - |
| 1777987246 | 17.78° C | 77% | 1016.9 hPa | 0 mm | 1.34 m/s, 105° | 97 W/m² | - |
| 1777986943 | 17.78° C | 77% | 1016.9 hPa | 0 mm | 0.45 m/s, 145° | 65 W/m² | - |
| 1777986641 | 17.78° C | 78% | 1017 hPa | 0 mm | 0 m/s | 52 W/m² | - |
| 1777986338 | 17.22° C | 79% | 1017.1 hPa | 0 mm | 0.89 m/s, 154° | 50 W/m² | - |
| 1777986037 | 17.22° C | 79% | 1017 hPa | 0 mm | 1.34 m/s, 135° | 47 W/m² | - |
| 1777985733 | 16.67° C | 80% | 1017.2 hPa | 0 mm | 0.89 m/s, 140° | 133 W/m² | - |
| 1777985430 | 16.67° C | 81% | 1017 hPa | 0 mm | 0 m/s | 42 W/m² | - |
| 1777985126 | 16.67° C | 82% | 1017.1 hPa | 0 mm | 0 m/s | 40 W/m² | - |
| 1777984823 | 16.11° C | 83% | 1017 hPa | 0 mm | 0 m/s | 48 W/m² | - |
| 1777984519 | 16.11° C | 84% | 1016.9 hPa | 0 mm | 0 m/s | 54 W/m² | - |
| 1777984215 | 15.56° C | 85% | 1017 hPa | 0 mm | 0.45 m/s, 294° | 51 W/m² | - |
| 1777983913 | 15.56° C | 86% | 1016.9 hPa | 0 mm | 0 m/s | 48 W/m² | - |
| 1777983609 | 15° C | 86% | 1016.9 hPa | 0 mm | 0.45 m/s, 73° | 39 W/m² | - |
* Rain latest hour (hover to see other rain measurements)
** Current wind speed in m/s (hover to see current wind gust speed)